Terminal Aerodrome Forecast
Issued by NWS

Home | Current Version | Previous Version | Text Only | Print | Product List | Glossary On
Versions: 1 2 3 4 5 6 7 8 9 10 11 12 13 14 15 16 17 18 19 20 21 22
448
FTUS43 KAPX 110534
TAFMBL
TAF
KMBL 110534Z 1106/1206 33005KT P6SM -SHSN OVC035
     FM111200 16004KT 5SM -SHSN OVC025
     FM111500 16006KT 1SM -SHSN OVC015
     FM112100 22005KT 3/4SM -SHSN OVC015
     FM112300 29005KT 2SM -SHSN OVC015
     FM120300 34011G23KT 5SM -SHSN OVC030
     FM120500 34016G26KT 5SM -SHSN BLSN OVC030=

USA.gov is the U.S. government's official web portal to all federal, state and local government web resources and services.